sensor_id;sensor_type;location;lat;lon;timestamp;temperature;humidity
2967;DHT22;1493;51.496;7.210;2023-04-06T00:00:33;3.20;1.00
2967;DHT22;1493;51.496;7.210;2023-04-06T00:03:00;3.20;1.00
2967;DHT22;1493;51.496;7.210;2023-04-06T00:05:27;3.10;1.00
2967;DHT22;1493;51.496;7.210;2023-04-06T00:07:56;3.10;1.00
2967;DHT22;1493;51.496;7.210;2023-04-06T00:10:25;3.10;1.00
2967;DHT22;1493;51.496;7.210;2023-04-06T00:12:52;3.10;1.00
2967;DHT22;1493;51.496;7.210;2023-04-06T00:15:19;3.10;1.00
2967;DHT22;1493;51.496;7.210;2023-04-06T00:17:46;3.00;1.00
2967;DHT22;1493;51.496;7.210;2023-04-06T00:20:13;2.90;1.00
2967;DHT22;1493;51.496;7.210;2023-04-06T00:22:40;2.90;1.00
2967;DHT22;1493;51.496;7.210;2023-04-06T00:25:08;2.90;1.00
2967;DHT22;1493;51.496;7.210;2023-04-06T00:27:38;3.00;1.00
2967;DHT22;1493;51.496;7.210;2023-04-06T00:30:06;2.90;1.00
2967;DHT22;1493;51.496;7.210;2023-04-06T00:32:33;2.90;1.00
2967;DHT22;1493;51.496;7.210;2023-04-06T00:35:01;2.90;1.00
2967;DHT22;1493;51.496;7.210;2023-04-06T00:37:28;2.90;1.00
2967;DHT22;1493;51.496;7.210;2023-04-06T00:39:55;2.90;1.00
2967;DHT22;1493;51.496;7.210;2023-04-06T00:42:22;2.80;1.00
2967;DHT22;1493;51.496;7.210;2023-04-06T00:44:54;2.80;1.00
2967;DHT22;1493;51.496;7.210;2023-04-06T00:47:21;2.80;1.00
2967;DHT22;1493;51.496;7.210;2023-04-06T00:49:48;2.80;1.00
2967;DHT22;1493;51.496;7.210;2023-04-06T00:52:16;2.80;1.00
2967;DHT22;1493;51.496;7.210;2023-04-06T00:54:43;2.70;21.40
2967;DHT22;1493;51.496;7.210;2023-04-06T00:57:11;2.70;90.00
2967;DHT22;1493;51.496;7.210;2023-04-06T00:59:38;2.70;99.90
2967;DHT22;1493;51.496;7.210;2023-04-06T01:02:07;2.70;99.90
2967;DHT22;1493;51.496;7.210;2023-04-06T01:04:34;2.70;58.70
2967;DHT22;1493;51.496;7.210;2023-04-06T01:07:01;2.70;93.30
2967;DHT22;1493;51.496;7.210;2023-04-06T01:09:28;2.60;99.90
2967;DHT22;1493;51.496;7.210;2023-04-06T01:11:56;2.60;43.80
2967;DHT22;1493;51.496;7.210;2023-04-06T01:14:23;2.60;18.80
2967;DHT22;1493;51.496;7.210;2023-04-06T01:16:51;2.60;20.10
2967;DHT22;1493;51.496;7.210;2023-04-06T01:19:19;2.60;48.40
2967;DHT22;1493;51.496;7.210;2023-04-06T01:21:47;2.50;27.00
2967;DHT22;1493;51.496;7.210;2023-04-06T01:24:16;2.50;82.00
2967;DHT22;1493;51.496;7.210;2023-04-06T01:26:43;2.50;99.90
2967;DHT22;1493;51.496;7.210;2023-04-06T01:29:10;2.50;99.90
2967;DHT22;1493;51.496;7.210;2023-04-06T01:31:38;2.50;99.90
2967;DHT22;1493;51.496;7.210;2023-04-06T01:34:05;2.50;99.90
2967;DHT22;1493;51.496;7.210;2023-04-06T01:36:32;2.50;99.90
2967;DHT22;1493;51.496;7.210;2023-04-06T01:38:59;2.50;99.90
2967;DHT22;1493;51.496;7.210;2023-04-06T01:41:27;2.50;99.90
2967;DHT22;1493;51.496;7.210;2023-04-06T01:43:54;2.50;99.90
2967;DHT22;1493;51.496;7.210;2023-04-06T01:46:21;2.50;99.90
2967;DHT22;1493;51.496;7.210;2023-04-06T01:48:48;2.50;95.60
2967;DHT22;1493;51.496;7.210;2023-04-06T01:51:15;2.50;92.90
2967;DHT22;1493;51.496;7.210;2023-04-06T01:53:42;2.50;99.90
2967;DHT22;1493;51.496;7.210;2023-04-06T01:56:09;2.50;99.90
2967;DHT22;1493;51.496;7.210;2023-04-06T01:58:37;2.50;99.90
2967;DHT22;1493;51.496;7.210;2023-04-06T02:01:05;2.40;99.90
2967;DHT22;1493;51.496;7.210;2023-04-06T02:03:31;2.40;99.90
2967;DHT22;1493;51.496;7.210;2023-04-06T02:05:58;2.50;75.60
2967;DHT22;1493;51.496;7.210;2023-04-06T02:08:25;2.40;99.90
2967;DHT22;1493;51.496;7.210;2023-04-06T02:10:52;2.40;95.50
2967;DHT22;1493;51.496;7.210;2023-04-06T02:13:19;2.40;99.90
2967;DHT22;1493;51.496;7.210;2023-04-06T02:15:47;2.40;80.60
2967;DHT22;1493;51.496;7.210;2023-04-06T02:18:14;2.40;46.70
2967;DHT22;1493;51.496;7.210;2023-04-06T02:20:43;2.40;99.90
2967;DHT22;1493;51.496;7.210;2023-04-06T02:23:10;2.40;99.90
2967;DHT22;1493;51.496;7.210;2023-04-06T02:25:37;2.40;98.10
2967;DHT22;1493;51.496;7.210;2023-04-06T02:28:04;2.40;92.30
2967;DHT22;1493;51.496;7.210;2023-04-06T02:30:31;2.30;92.10
2967;DHT22;1493;51.496;7.210;2023-04-06T02:32:59;2.30;99.90
2967;DHT22;1493;51.496;7.210;2023-04-06T02:35:27;2.20;97.20
2967;DHT22;1493;51.496;7.210;2023-04-06T02:37:54;2.20;99.90
2967;DHT22;1493;51.496;7.210;2023-04-06T02:40:21;2.20;99.90
2967;DHT22;1493;51.496;7.210;2023-04-06T02:42:48;2.20;99.90
2967;DHT22;1493;51.496;7.210;2023-04-06T02:45:16;2.20;99.90
2967;DHT22;1493;51.496;7.210;2023-04-06T02:47:42;2.10;99.90
2967;DHT22;1493;51.496;7.210;2023-04-06T02:50:11;2.10;99.90
2967;DHT22;1493;51.496;7.210;2023-04-06T02:52:38;2.10;99.90
2967;DHT22;1493;51.496;7.210;2023-04-06T02:55:06;2.10;99.90
2967;DHT22;1493;51.496;7.210;2023-04-06T02:57:33;2.10;99.90
2967;DHT22;1493;51.496;7.210;2023-04-06T03:00:00;2.10;99.90
2967;DHT22;1493;51.496;7.210;2023-04-06T03:02:27;2.10;99.90
2967;DHT22;1493;51.496;7.210;2023-04-06T03:04:54;2.00;99.90
2967;DHT22;1493;51.496;7.210;2023-04-06T03:07:22;2.00;99.90
2967;DHT22;1493;51.496;7.210;2023-04-06T03:09:49;2.00;1.00
2967;DHT22;1493;51.496;7.210;2023-04-06T03:12:16;2.00;1.00
2967;DHT22;1493;51.496;7.210;2023-04-06T03:14:43;2.00;1.00
2967;DHT22;1493;51.496;7.210;2023-04-06T03:17:10;1.90;1.00
2967;DHT22;1493;51.496;7.210;2023-04-06T03:19:37;2.00;1.00
2967;DHT22;1493;51.496;7.210;2023-04-06T03:22:04;1.90;99.90
2967;DHT22;1493;51.496;7.210;2023-04-06T03:24:32;1.90;1.00
2967;DHT22;1493;51.496;7.210;2023-04-06T03:26:59;1.90;1.00
2967;DHT22;1493;51.496;7.210;2023-04-06T03:29:26;1.90;1.00
2967;DHT22;1493;51.496;7.210;2023-04-06T03:31:53;1.90;1.00
2967;DHT22;1493;51.496;7.210;2023-04-06T03:34:20;1.80;1.00
2967;DHT22;1493;51.496;7.210;2023-04-06T03:36:47;1.80;1.00
2967;DHT22;1493;51.496;7.210;2023-04-06T03:39:13;1.80;1.00
2967;DHT22;1493;51.496;7.210;2023-04-06T03:41:42;1.80;1.00
2967;DHT22;1493;51.496;7.210;2023-04-06T03:44:09;1.80;47.30
2967;DHT22;1493;51.496;7.210;2023-04-06T03:46:36;1.80;1.00
2967;DHT22;1493;51.496;7.210;2023-04-06T03:49:03;1.80;1.00
2967;DHT22;1493;51.496;7.210;2023-04-06T03:51:30;1.80;1.00
2967;DHT22;1493;51.496;7.210;2023-04-06T03:53:57;1.80;1.00
2967;DHT22;1493;51.496;7.210;2023-04-06T03:56:24;1.80;1.00
2967;DHT22;1493;51.496;7.210;2023-04-06T03:58:53;1.70;1.00
2967;DHT22;1493;51.496;7.210;2023-04-06T04:01:20;1.70;1.00
2967;DHT22;1493;51.496;7.210;2023-04-06T04:03:47;1.70;1.00
2967;DHT22;1493;51.496;7.210;2023-04-06T04:06:13;1.70;37.70
2967;DHT22;1493;51.496;7.210;2023-04-06T04:08:40;1.70;99.90
2967;DHT22;1493;51.496;7.210;2023-04-06T04:11:07;1.70;99.90
2967;DHT22;1493;51.496;7.210;2023-04-06T04:13:34;1.70;99.90
2967;DHT22;1493;51.496;7.210;2023-04-06T04:16:03;1.60;99.90
2967;DHT22;1493;51.496;7.210;2023-04-06T04:18:29;1.60;98.10
2967;DHT22;1493;51.496;7.210;2023-04-06T04:20:56;1.70;99.90
2967;DHT22;1493;51.496;7.210;2023-04-06T04:23:23;1.60;99.90
2967;DHT22;1493;51.496;7.210;2023-04-06T04:25:50;1.60;99.90
2967;DHT22;1493;51.496;7.210;2023-04-06T04:28:17;1.60;99.90
2967;DHT22;1493;51.496;7.210;2023-04-06T04:30:45;1.60;99.90
2967;DHT22;1493;51.496;7.210;2023-04-06T04:33:14;1.70;99.90
2967;DHT22;1493;51.496;7.210;2023-04-06T04:35:41;1.60;99.90
2967;DHT22;1493;51.496;7.210;2023-04-06T04:38:07;1.60;71.00
2967;DHT22;1493;51.496;7.210;2023-04-06T04:40:34;1.60;94.00
2967;DHT22;1493;51.496;7.210;2023-04-06T04:43:01;1.60;1.00
2967;DHT22;1493;51.496;7.210;2023-04-06T04:45:28;1.60;1.00
2967;DHT22;1493;51.496;7.210;2023-04-06T04:47:55;1.60;1.00
2967;DHT22;1493;51.496;7.210;2023-04-06T04:50:23;1.60;1.00
2967;DHT22;1493;51.496;7.210;2023-04-06T04:52:50;1.60;75.80
2967;DHT22;1493;51.496;7.210;2023-04-06T04:55:17;1.60;99.90
2967;DHT22;1493;51.496;7.210;2023-04-06T04:57:44;1.60;97.60
2967;DHT22;1493;51.496;7.210;2023-04-06T05:00:12;1.60;99.90
2967;DHT22;1493;51.496;7.210;2023-04-06T05:02:39;1.70;99.90
2967;DHT22;1493;51.496;7.210;2023-04-06T05:05:07;1.60;99.90
2967;DHT22;1493;51.496;7.210;2023-04-06T05:07:35;1.70;58.10
2967;DHT22;1493;51.496;7.210;2023-04-06T05:10:02;1.70;1.00
2967;DHT22;1493;51.496;7.210;2023-04-06T05:12:29;1.70;1.00
2967;DHT22;1493;51.496;7.210;2023-04-06T05:14:56;1.70;1.00
2967;DHT22;1493;51.496;7.210;2023-04-06T05:17:23;1.70;1.00
2967;DHT22;1493;51.496;7.210;2023-04-06T05:19:51;1.70;1.00
2967;DHT22;1493;51.496;7.210;2023-04-06T05:22:18;1.70;1.00
2967;DHT22;1493;51.496;7.210;2023-04-06T05:24:46;1.70;1.00
2967;DHT22;1493;51.496;7.210;2023-04-06T05:27:13;1.80;1.00
2967;DHT22;1493;51.496;7.210;2023-04-06T05:29:40;1.80;35.90
2967;DHT22;1493;51.496;7.210;2023-04-06T05:32:07;1.90;72.10
2967;DHT22;1493;51.496;7.210;2023-04-06T05:34:34;1.90;1.00
2967;DHT22;1493;51.496;7.210;2023-04-06T05:37:01;2.00;62.60
2967;DHT22;1493;51.496;7.210;2023-04-06T05:39:28;2.00;1.00
2967;DHT22;1493;51.496;7.210;2023-04-06T05:41:57;2.10;1.00
2967;DHT22;1493;51.496;7.210;2023-04-06T05:44:23;2.10;1.00
2967;DHT22;1493;51.496;7.210;2023-04-06T05:46:50;2.20;1.00
2967;DHT22;1493;51.496;7.210;2023-04-06T05:49:17;2.30;99.90
2967;DHT22;1493;51.496;7.210;2023-04-06T05:51:44;2.40;99.90
2967;DHT22;1493;51.496;7.210;2023-04-06T05:54:13;2.40;99.90
2967;DHT22;1493;51.496;7.210;2023-04-06T05:56:40;2.50;1.00
2967;DHT22;1493;51.496;7.210;2023-04-06T05:59:08;2.60;99.90
2967;DHT22;1493;51.496;7.210;2023-04-06T06:01:35;2.80;99.90
2967;DHT22;1493;51.496;7.210;2023-04-06T06:04:02;2.90;99.90
2967;DHT22;1493;51.496;7.210;2023-04-06T06:06:29;3.00;99.90
2967;DHT22;1493;51.496;7.210;2023-04-06T06:08:56;3.10;99.90
2967;DHT22;1493;51.496;7.210;2023-04-06T06:11:24;3.20;69.40
2967;DHT22;1493;51.496;7.210;2023-04-06T06:13:51;3.30;23.60
2967;DHT22;1493;51.496;7.210;2023-04-06T06:16:20;3.40;1.00
2967;DHT22;1493;51.496;7.210;2023-04-06T06:18:47;3.50;1.00
2967;DHT22;1493;51.496;7.210;2023-04-06T06:21:14;3.60;1.00
2967;DHT22;1493;51.496;7.210;2023-04-06T06:23:42;3.70;1.00
2967;DHT22;1493;51.496;7.210;2023-04-06T06:26:10;3.80;1.00
2967;DHT22;1493;51.496;7.210;2023-04-06T06:28:37;3.90;1.00
2967;DHT22;1493;51.496;7.210;2023-04-06T06:31:04;4.10;1.00
2967;DHT22;1493;51.496;7.210;2023-04-06T06:33:32;4.20;1.00
2967;DHT22;1493;51.496;7.210;2023-04-06T06:35:59;4.30;1.00
2967;DHT22;1493;51.496;7.210;2023-04-06T06:38:26;4.40;1.00
2967;DHT22;1493;51.496;7.210;2023-04-06T06:40:53;4.60;99.90
2967;DHT22;1493;51.496;7.210;2023-04-06T06:43:20;4.90;99.90
2967;DHT22;1493;51.496;7.210;2023-04-06T06:45:47;4.90;99.90
2967;DHT22;1493;51.496;7.210;2023-04-06T06:48:14;5.00;99.90
2967;DHT22;1493;51.496;7.210;2023-04-06T06:50:42;5.10;99.90
2967;DHT22;1493;51.496;7.210;2023-04-06T06:53:09;5.20;99.90
2967;DHT22;1493;51.496;7.210;2023-04-06T06:55:37;5.40;99.90
2967;DHT22;1493;51.496;7.210;2023-04-06T06:58:04;5.40;99.90
2967;DHT22;1493;51.496;7.210;2023-04-06T07:00:31;5.60;99.90
2967;DHT22;1493;51.496;7.210;2023-04-06T07:02:58;5.70;99.90
2967;DHT22;1493;51.496;7.210;2023-04-06T07:05:25;5.90;99.90
2967;DHT22;1493;51.496;7.210;2023-04-06T07:07:54;6.00;99.90
2967;DHT22;1493;51.496;7.210;2023-04-06T07:10:21;6.10;99.90
2967;DHT22;1493;51.496;7.210;2023-04-06T07:12:48;6.20;99.90
2967;DHT22;1493;51.496;7.210;2023-04-06T07:15:15;6.30;99.90
2967;DHT22;1493;51.496;7.210;2023-04-06T07:17:42;6.40;99.90
2967;DHT22;1493;51.496;7.210;2023-04-06T07:20:11;6.60;99.90
2967;DHT22;1493;51.496;7.210;2023-04-06T07:22:38;6.80;99.90
2967;DHT22;1493;51.496;7.210;2023-04-06T07:25:07;7.00;99.90
2967;DHT22;1493;51.496;7.210;2023-04-06T07:27:34;7.10;99.90
2967;DHT22;1493;51.496;7.210;2023-04-06T07:30:01;7.40;99.90
2967;DHT22;1493;51.496;7.210;2023-04-06T07:32:28;7.60;99.90
2967;DHT22;1493;51.496;7.210;2023-04-06T07:34:56;7.70;99.90
2967;DHT22;1493;51.496;7.210;2023-04-06T07:37:25;7.80;99.90
2967;DHT22;1493;51.496;7.210;2023-04-06T07:39:52;8.00;99.90
2967;DHT22;1493;51.496;7.210;2023-04-06T07:42:20;8.10;99.90
2967;DHT22;1493;51.496;7.210;2023-04-06T07:44:48;8.40;99.90
2967;DHT22;1493;51.496;7.210;2023-04-06T07:47:15;8.70;99.90
2967;DHT22;1493;51.496;7.210;2023-04-06T07:49:42;8.90;99.90
2967;DHT22;1493;51.496;7.210;2023-04-06T07:52:09;9.20;99.90
2967;DHT22;1493;51.496;7.210;2023-04-06T07:54:36;9.40;99.90
2967;DHT22;1493;51.496;7.210;2023-04-06T07:57:03;9.60;99.90
2967;DHT22;1493;51.496;7.210;2023-04-06T07:59:31;9.70;99.90
2967;DHT22;1493;51.496;7.210;2023-04-06T08:01:58;9.80;99.90
2967;DHT22;1493;51.496;7.210;2023-04-06T08:04:25;9.80;99.90
2967;DHT22;1493;51.496;7.210;2023-04-06T08:06:52;9.70;99.90
2967;DHT22;1493;51.496;7.210;2023-04-06T08:09:18;9.90;99.90
2967;DHT22;1493;51.496;7.210;2023-04-06T08:11:46;9.90;99.90
2967;DHT22;1493;51.496;7.210;2023-04-06T08:14:14;10.10;99.90
2967;DHT22;1493;51.496;7.210;2023-04-06T08:16:42;10.20;99.90
2967;DHT22;1493;51.496;7.210;2023-04-06T08:19:09;10.70;99.90
2967;DHT22;1493;51.496;7.210;2023-04-06T08:21:36;11.10;99.90
2967;DHT22;1493;51.496;7.210;2023-04-06T08:24:04;11.80;99.90
2967;DHT22;1493;51.496;7.210;2023-04-06T08:26:31;12.70;99.90
2967;DHT22;1493;51.496;7.210;2023-04-06T08:28:58;13.60;99.90
2967;DHT22;1493;51.496;7.210;2023-04-06T08:31:25;15.10;99.90
2967;DHT22;1493;51.496;7.210;2023-04-06T08:33:53;16.00;99.90
2967;DHT22;1493;51.496;7.210;2023-04-06T08:36:20;17.20;99.90
2967;DHT22;1493;51.496;7.210;2023-04-06T08:38:48;18.10;99.90
2967;DHT22;1493;51.496;7.210;2023-04-06T08:41:16;18.10;99.90
2967;DHT22;1493;51.496;7.210;2023-04-06T08:43:46;19.90;99.90
2967;DHT22;1493;51.496;7.210;2023-04-06T08:46:13;20.20;99.90
2967;DHT22;1493;51.496;7.210;2023-04-06T08:48:41;20.80;99.90
2967;DHT22;1493;51.496;7.210;2023-04-06T08:51:11;21.90;99.90
2967;DHT22;1493;51.496;7.210;2023-04-06T08:53:38;20.90;99.90
2967;DHT22;1493;51.496;7.210;2023-04-06T08:56:05;20.10;99.90
2967;DHT22;1493;51.496;7.210;2023-04-06T08:58:35;18.80;99.90
2967;DHT22;1493;51.496;7.210;2023-04-06T09:01:05;17.60;99.90
2967;DHT22;1493;51.496;7.210;2023-04-06T09:03:35;18.30;99.90
2967;DHT22;1493;51.496;7.210;2023-04-06T09:06:03;18.20;99.90
2967;DHT22;1493;51.496;7.210;2023-04-06T09:08:33;17.40;99.90
2967;DHT22;1493;51.496;7.210;2023-04-06T09:11:00;17.70;99.90
2967;DHT22;1493;51.496;7.210;2023-04-06T09:13:27;17.80;99.90
2967;DHT22;1493;51.496;7.210;2023-04-06T09:16:01;17.20;99.90
2967;DHT22;1493;51.496;7.210;2023-04-06T09:18:29;17.60;99.90
2967;DHT22;1493;51.496;7.210;2023-04-06T09:20:58;17.90;99.90
2967;DHT22;1493;51.496;7.210;2023-04-06T09:23:25;17.50;99.90
2967;DHT22;1493;51.496;7.210;2023-04-06T09:26:06;17.50;99.90
2967;DHT22;1493;51.496;7.210;2023-04-06T09:28:47;17.60;99.90
2967;DHT22;1493;51.496;7.210;2023-04-06T09:31:16;17.50;99.90
2967;DHT22;1493;51.496;7.210;2023-04-06T09:33:44;17.00;99.90
2967;DHT22;1493;51.496;7.210;2023-04-06T09:36:12;16.70;99.90
2967;DHT22;1493;51.496;7.210;2023-04-06T09:38:52;16.10;99.90
2967;DHT22;1493;51.496;7.210;2023-04-06T09:41:25;16.60;99.90
2967;DHT22;1493;51.496;7.210;2023-04-06T09:44:01;16.40;99.90
2967;DHT22;1493;51.496;7.210;2023-04-06T09:46:31;16.50;99.90
2967;DHT22;1493;51.496;7.210;2023-04-06T09:48:58;16.40;99.90
2967;DHT22;1493;51.496;7.210;2023-04-06T09:51:26;16.80;99.90
2967;DHT22;1493;51.496;7.210;2023-04-06T09:53:57;16.80;99.90
2967;DHT22;1493;51.496;7.210;2023-04-06T09:56:30;17.30;99.90
2967;DHT22;1493;51.496;7.210;2023-04-06T09:59:08;17.30;99.90
2967;DHT22;1493;51.496;7.210;2023-04-06T10:01:36;17.90;99.90
2967;DHT22;1493;51.496;7.210;2023-04-06T10:04:13;19.90;99.90
2967;DHT22;1493;51.496;7.210;2023-04-06T10:06:47;21.00;99.90
2967;DHT22;1493;51.496;7.210;2023-04-06T10:09:21;21.00;99.90
2967;DHT22;1493;51.496;7.210;2023-04-06T10:11:51;21.40;99.90
2967;DHT22;1493;51.496;7.210;2023-04-06T10:14:18;22.20;99.90
2967;DHT22;1493;51.496;7.210;2023-04-06T10:16:48;20.50;99.90
2967;DHT22;1493;51.496;7.210;2023-04-06T10:19:21;20.30;99.90
2967;DHT22;1493;51.496;7.210;2023-04-06T10:21:53;21.10;99.90
2967;DHT22;1493;51.496;7.210;2023-04-06T10:24:21;21.70;99.90
2967;DHT22;1493;51.496;7.210;2023-04-06T10:26:58;21.50;99.90
2967;DHT22;1493;51.496;7.210;2023-04-06T10:29:25;21.40;99.90
2967;DHT22;1493;51.496;7.210;2023-04-06T10:31:52;21.50;99.90
2967;DHT22;1493;51.496;7.210;2023-04-06T10:34:20;21.40;99.90
2967;DHT22;1493;51.496;7.210;2023-04-06T10:36:47;21.80;99.90
2967;DHT22;1493;51.496;7.210;2023-04-06T10:39:24;21.60;99.90
2967;DHT22;1493;51.496;7.210;2023-04-06T10:41:52;21.10;99.90
2967;DHT22;1493;51.496;7.210;2023-04-06T10:44:22;20.40;99.90
2967;DHT22;1493;51.496;7.210;2023-04-06T10:46:53;20.10;99.90
2967;DHT22;1493;51.496;7.210;2023-04-06T10:49:20;19.50;99.90
2967;DHT22;1493;51.496;7.210;2023-04-06T10:51:51;19.90;99.90
2967;DHT22;1493;51.496;7.210;2023-04-06T10:54:21;19.80;99.90
2967;DHT22;1493;51.496;7.210;2023-04-06T10:56:50;19.50;99.90
2967;DHT22;1493;51.496;7.210;2023-04-06T10:59:20;19.70;99.90
2967;DHT22;1493;51.496;7.210;2023-04-06T11:01:48;20.80;99.90
2967;DHT22;1493;51.496;7.210;2023-04-06T11:04:19;21.30;99.90
2967;DHT22;1493;51.496;7.210;2023-04-06T11:06:47;21.10;99.90
2967;DHT22;1493;51.496;7.210;2023-04-06T11:09:24;21.40;99.90
2967;DHT22;1493;51.496;7.210;2023-04-06T11:11:52;21.70;99.90
2967;DHT22;1493;51.496;7.210;2023-04-06T11:14:21;21.50;99.90
2967;DHT22;1493;51.496;7.210;2023-04-06T11:16:48;21.30;99.90
2967;DHT22;1493;51.496;7.210;2023-04-06T11:19:16;21.70;99.90
2967;DHT22;1493;51.496;7.210;2023-04-06T11:21:44;22.20;99.90
2967;DHT22;1493;51.496;7.210;2023-04-06T11:24:15;22.80;99.90
2967;DHT22;1493;51.496;7.210;2023-04-06T11:26:44;23.30;99.90
2967;DHT22;1493;51.496;7.210;2023-04-06T11:29:12;24.10;99.90
2967;DHT22;1493;51.496;7.210;2023-04-06T11:31:45;25.00;99.90
2967;DHT22;1493;51.496;7.210;2023-04-06T11:34:15;24.60;99.90
2967;DHT22;1493;51.496;7.210;2023-04-06T11:36:43;24.30;99.90
2967;DHT22;1493;51.496;7.210;2023-04-06T11:39:11;22.90;99.90
2967;DHT22;1493;51.496;7.210;2023-04-06T11:41:38;22.70;99.90
2967;DHT22;1493;51.496;7.210;2023-04-06T11:44:06;22.60;99.90
2967;DHT22;1493;51.496;7.210;2023-04-06T11:46:33;22.20;99.90
2967;DHT22;1493;51.496;7.210;2023-04-06T11:49:02;21.50;99.90
2967;DHT22;1493;51.496;7.210;2023-04-06T11:51:29;20.40;99.90
2967;DHT22;1493;51.496;7.210;2023-04-06T11:53:56;20.00;99.90
2967;DHT22;1493;51.496;7.210;2023-04-06T11:56:27;19.90;99.90
2967;DHT22;1493;51.496;7.210;2023-04-06T11:58:55;20.60;99.90
2967;DHT22;1493;51.496;7.210;2023-04-06T12:01:22;20.50;99.90
2967;DHT22;1493;51.496;7.210;2023-04-06T12:03:51;20.70;99.90
2967;DHT22;1493;51.496;7.210;2023-04-06T12:06:19;20.20;99.90
2967;DHT22;1493;51.496;7.210;2023-04-06T12:08:46;20.10;99.90
2967;DHT22;1493;51.496;7.210;2023-04-06T12:11:13;20.50;99.90
2967;DHT22;1493;51.496;7.210;2023-04-06T12:13:40;20.80;99.90
2967;DHT22;1493;51.496;7.210;2023-04-06T12:16:07;20.90;99.90
2967;DHT22;1493;51.496;7.210;2023-04-06T12:18:34;20.80;99.90
2967;DHT22;1493;51.496;7.210;2023-04-06T12:21:01;20.80;99.90
2967;DHT22;1493;51.496;7.210;2023-04-06T12:23:29;20.90;99.90
2967;DHT22;1493;51.496;7.210;2023-04-06T12:25:56;21.00;99.90
2967;DHT22;1493;51.496;7.210;2023-04-06T12:28:23;19.90;99.90
2967;DHT22;1493;51.496;7.210;2023-04-06T12:30:52;20.50;99.90
2967;DHT22;1493;51.496;7.210;2023-04-06T12:33:20;20.60;99.90
2967;DHT22;1493;51.496;7.210;2023-04-06T12:35:47;20.60;99.90
2967;DHT22;1493;51.496;7.210;2023-04-06T12:38:14;20.80;99.90
2967;DHT22;1493;51.496;7.210;2023-04-06T12:40:42;20.50;99.90
2967;DHT22;1493;51.496;7.210;2023-04-06T12:43:09;20.90;99.90
2967;DHT22;1493;51.496;7.210;2023-04-06T12:45:38;20.40;99.90
2967;DHT22;1493;51.496;7.210;2023-04-06T12:48:05;20.30;99.90
2967;DHT22;1493;51.496;7.210;2023-04-06T12:50:34;20.00;99.90
2967;DHT22;1493;51.496;7.210;2023-04-06T12:53:01;19.20;99.90
2967;DHT22;1493;51.496;7.210;2023-04-06T12:55:30;18.60;99.90
2967;DHT22;1493;51.496;7.210;2023-04-06T12:58:01;18.70;99.90
2967;DHT22;1493;51.496;7.210;2023-04-06T13:00:31;18.70;99.90
2967;DHT22;1493;51.496;7.210;2023-04-06T13:02:58;18.50;99.90
2967;DHT22;1493;51.496;7.210;2023-04-06T13:05:25;18.20;99.90
2967;DHT22;1493;51.496;7.210;2023-04-06T13:07:52;17.90;99.90
2967;DHT22;1493;51.496;7.210;2023-04-06T13:10:18;17.40;99.90
2967;DHT22;1493;51.496;7.210;2023-04-06T13:12:45;17.30;99.90
2967;DHT22;1493;51.496;7.210;2023-04-06T13:15:14;17.10;99.90
2967;DHT22;1493;51.496;7.210;2023-04-06T13:17:41;17.20;99.90
2967;DHT22;1493;51.496;7.210;2023-04-06T13:20:09;17.20;99.90
2967;DHT22;1493;51.496;7.210;2023-04-06T13:22:36;16.80;99.90
2967;DHT22;1493;51.496;7.210;2023-04-06T13:25:03;16.70;99.90
2967;DHT22;1493;51.496;7.210;2023-04-06T13:27:30;16.50;99.90
2967;DHT22;1493;51.496;7.210;2023-04-06T13:29:59;16.20;99.90
2967;DHT22;1493;51.496;7.210;2023-04-06T13:32:27;16.20;99.90
2967;DHT22;1493;51.496;7.210;2023-04-06T13:34:55;16.40;99.90
2967;DHT22;1493;51.496;7.210;2023-04-06T13:37:22;16.20;99.90
2967;DHT22;1493;51.496;7.210;2023-04-06T13:39:49;16.40;99.90
2967;DHT22;1493;51.496;7.210;2023-04-06T13:42:16;16.10;99.90
2967;DHT22;1493;51.496;7.210;2023-04-06T13:44:43;15.60;99.90
2967;DHT22;1493;51.496;7.210;2023-04-06T13:47:12;15.80;99.90
2967;DHT22;1493;51.496;7.210;2023-04-06T13:49:40;15.70;99.90
2967;DHT22;1493;51.496;7.210;2023-04-06T13:52:07;15.90;99.90
2967;DHT22;1493;51.496;7.210;2023-04-06T13:54:35;15.80;99.90
2967;DHT22;1493;51.496;7.210;2023-04-06T13:57:02;15.80;99.90
2967;DHT22;1493;51.496;7.210;2023-04-06T13:59:32;15.80;99.90
2967;DHT22;1493;51.496;7.210;2023-04-06T14:01:59;15.70;99.90
2967;DHT22;1493;51.496;7.210;2023-04-06T14:04:26;15.70;99.90
2967;DHT22;1493;51.496;7.210;2023-04-06T14:06:54;15.70;99.90
2967;DHT22;1493;51.496;7.210;2023-04-06T14:09:21;15.40;99.90
2967;DHT22;1493;51.496;7.210;2023-04-06T14:11:48;15.20;99.90
2967;DHT22;1493;51.496;7.210;2023-04-06T14:14:15;15.30;99.90
2967;DHT22;1493;51.496;7.210;2023-04-06T14:16:42;15.10;99.90
2967;DHT22;1493;51.496;7.210;2023-04-06T14:19:09;15.20;99.90
2967;DHT22;1493;51.496;7.210;2023-04-06T14:21:36;15.00;99.90
2967;DHT22;1493;51.496;7.210;2023-04-06T14:24:06;15.10;99.90
2967;DHT22;1493;51.496;7.210;2023-04-06T14:26:34;15.20;99.90
2967;DHT22;1493;51.496;7.210;2023-04-06T14:29:01;15.30;99.90
2967;DHT22;1493;51.496;7.210;2023-04-06T14:31:28;15.30;99.90
2967;DHT22;1493;51.496;7.210;2023-04-06T14:33:55;15.10;99.90
2967;DHT22;1493;51.496;7.210;2023-04-06T14:36:22;15.00;99.90
2967;DHT22;1493;51.496;7.210;2023-04-06T14:38:49;14.90;99.90
2967;DHT22;1493;51.496;7.210;2023-04-06T14:41:17;14.70;99.90
2967;DHT22;1493;51.496;7.210;2023-04-06T14:43:45;14.50;99.90
2967;DHT22;1493;51.496;7.210;2023-04-06T14:46:13;14.30;99.90
2967;DHT22;1493;51.496;7.210;2023-04-06T14:48:41;14.10;99.90
2967;DHT22;1493;51.496;7.210;2023-04-06T14:51:07;14.00;99.90
2967;DHT22;1493;51.496;7.210;2023-04-06T14:53:34;14.30;99.90
2967;DHT22;1493;51.496;7.210;2023-04-06T14:56:01;14.10;99.90
2967;DHT22;1493;51.496;7.210;2023-04-06T14:58:30;14.00;99.90
2967;DHT22;1493;51.496;7.210;2023-04-06T15:00:57;13.80;99.90
2967;DHT22;1493;51.496;7.210;2023-04-06T15:03:24;13.70;99.90
2967;DHT22;1493;51.496;7.210;2023-04-06T15:05:51;13.70;99.90
2967;DHT22;1493;51.496;7.210;2023-04-06T15:08:18;13.80;99.90
2967;DHT22;1493;51.496;7.210;2023-04-06T15:10:46;13.70;99.90
2967;DHT22;1493;51.496;7.210;2023-04-06T15:13:13;13.60;99.90
2967;DHT22;1493;51.496;7.210;2023-04-06T15:15:42;13.50;99.90
2967;DHT22;1493;51.496;7.210;2023-04-06T15:18:09;13.50;99.90
2967;DHT22;1493;51.496;7.210;2023-04-06T15:20:36;13.10;99.90
2967;DHT22;1493;51.496;7.210;2023-04-06T15:23:03;13.10;99.90
2967;DHT22;1493;51.496;7.210;2023-04-06T15:25:30;13.20;99.90
2967;DHT22;1493;51.496;7.210;2023-04-06T15:27:57;13.10;99.90
2967;DHT22;1493;51.496;7.210;2023-04-06T15:30:24;13.10;99.90
2967;DHT22;1493;51.496;7.210;2023-04-06T15:32:54;13.20;99.90
2967;DHT22;1493;51.496;7.210;2023-04-06T15:35:21;13.20;99.90
2967;DHT22;1493;51.496;7.210;2023-04-06T15:37:48;13.00;99.90
2967;DHT22;1493;51.496;7.210;2023-04-06T15:40:15;13.10;99.90
2967;DHT22;1493;51.496;7.210;2023-04-06T15:42:42;13.00;99.90
2967;DHT22;1493;51.496;7.210;2023-04-06T15:45:09;12.90;99.90
2967;DHT22;1493;51.496;7.210;2023-04-06T15:47:37;12.80;99.90
2967;DHT22;1493;51.496;7.210;2023-04-06T15:50:06;12.90;99.90
2967;DHT22;1493;51.496;7.210;2023-04-06T15:52:33;12.80;99.90
2967;DHT22;1493;51.496;7.210;2023-04-06T15:55:02;12.80;99.90
2967;DHT22;1493;51.496;7.210;2023-04-06T15:57:29;12.70;99.90
2967;DHT22;1493;51.496;7.210;2023-04-06T15:59:56;12.70;99.90
2967;DHT22;1493;51.496;7.210;2023-04-06T16:02:23;12.70;99.90
2967;DHT22;1493;51.496;7.210;2023-04-06T16:04:53;12.70;99.90
2967;DHT22;1493;51.496;7.210;2023-04-06T16:07:22;12.70;99.90
2967;DHT22;1493;51.496;7.210;2023-04-06T16:09:49;12.40;99.90
2967;DHT22;1493;51.496;7.210;2023-04-06T16:12:16;12.40;99.90
2967;DHT22;1493;51.496;7.210;2023-04-06T16:14:43;12.20;99.90